createdAt,value
2018-04-08T00:00:17.802Z,49.98
2018-04-08T00:01:17.797Z,49.79
2018-04-08T00:02:17.791Z,50.07
2018-04-08T00:03:17.786Z,50.17
2018-04-08T00:04:17.780Z,50.52
2018-04-08T00:05:17.776Z,51.10
2018-04-08T00:06:17.769Z,51.58
2018-04-08T00:07:17.763Z,51.97
2018-04-08T00:08:17.760Z,51.97
2018-04-08T00:09:17.752Z,51.10
2018-04-08T00:10:17.747Z,51.77
2018-04-08T00:11:17.741Z,51.48
2018-04-08T00:12:17.734Z,50.34
2018-04-08T00:13:17.724Z,50.52
2018-04-08T00:14:17.725Z,52.06
2018-04-08T00:15:17.717Z,52.44
2018-04-08T00:16:17.715Z,52.73
2018-04-08T00:17:17.707Z,52.61
2018-04-08T00:18:17.713Z,52.61
2018-04-08T00:19:17.699Z,52.34
2018-04-08T00:20:17.690Z,52.89
2018-04-08T00:21:17.682Z,52.32
2018-04-08T00:22:17.689Z,53.28
2018-04-08T00:23:17.674Z,53.47
2018-04-08T00:24:17.663Z,52.61
2018-04-08T00:25:17.657Z,51.75
2018-04-08T00:26:17.652Z,51.75
2018-04-08T00:27:17.648Z,52.32
2018-04-08T00:28:17.640Z,53.47
2018-04-08T00:29:17.635Z,52.03
2018-04-08T00:30:17.632Z,53.47
2018-04-08T00:31:17.627Z,52.32
2018-04-08T00:32:17.617Z,53.28
2018-04-08T00:33:17.616Z,53.56
2018-04-08T00:34:17.608Z,53.28
2018-04-08T00:35:17.602Z,53.37
2018-04-08T00:36:17.588Z,54.04
2018-04-08T00:37:17.586Z,53.94
2018-04-08T00:38:17.591Z,54.04
2018-04-08T00:39:17.577Z,53.56
2018-04-08T00:40:17.570Z,53.56
2018-04-08T00:41:17.564Z,52.80
2018-04-08T00:42:17.563Z,53.47
2018-04-08T00:43:17.552Z,53.75
2018-04-08T00:44:17.545Z,54.04
2018-04-08T00:45:17.543Z,54.43
2018-04-08T00:46:17.529Z,55.00
2018-04-08T00:47:17.534Z,54.61
2018-04-08T00:48:17.521Z,54.61
2018-04-08T00:49:17.512Z,54.61
2018-04-08T00:50:19.427Z,54.61
2018-04-08T00:51:19.425Z,54.80
2018-04-08T00:52:19.428Z,53.92
2018-04-08T00:53:17.487Z,52.99
2018-04-08T00:54:17.480Z,53.75
2018-04-08T00:55:17.480Z,53.08
2018-04-08T00:56:17.478Z,53.44
2018-04-08T00:57:17.467Z,53.63
2018-04-08T00:58:17.463Z,52.51
2018-04-08T00:59:17.451Z,52.51
2018-04-08T01:00:17.448Z,52.80
2018-04-08T01:01:17.441Z,54.14
2018-04-08T01:02:17.434Z,53.18
2018-04-08T01:03:17.430Z,53.18
2018-04-08T01:04:17.427Z,54.14
2018-04-08T01:05:17.418Z,54.61
2018-04-08T01:06:17.411Z,53.56
2018-04-08T01:07:17.402Z,54.71
2018-04-08T01:08:18.951Z,55.07
2018-04-08T01:09:17.393Z,54.39
2018-04-08T01:10:17.384Z,54.97
2018-04-08T01:11:17.380Z,53.63
2018-04-08T01:12:17.376Z,54.02
2018-04-08T01:13:17.367Z,54.11
2018-04-08T01:14:17.364Z,53.16
2018-04-08T01:15:17.352Z,53.73
2018-04-08T01:16:17.351Z,53.85
2018-04-08T01:17:17.342Z,52.48
2018-04-08T01:18:17.337Z,52.96
2018-04-08T01:19:17.331Z,51.72
2018-04-08T01:20:17.324Z,53.06
2018-04-08T01:21:17.320Z,52.67
2018-04-08T01:22:17.312Z,54.30
2018-04-08T01:23:17.305Z,53.25
2018-04-08T01:24:17.300Z,54.68
2018-04-08T01:25:17.297Z,54.59
2018-04-08T01:26:23.974Z,53.63
2018-04-08T01:27:17.281Z,54.11
2018-04-08T01:28:17.276Z,52.39
2018-04-08T01:29:17.271Z,53.53
2018-04-08T01:30:17.261Z,54.78
2018-04-08T01:31:18.935Z,55.64
2018-04-08T01:32:17.256Z,54.59
2018-04-08T01:33:17.241Z,54.59
2018-04-08T01:34:17.236Z,54.68
2018-04-08T01:35:17.237Z,55.35
2018-04-08T01:36:17.271Z,54.68
2018-04-08T01:37:17.223Z,54.59
2018-04-08T01:38:17.211Z,53.82
2018-04-08T01:39:17.204Z,54.68
2018-04-08T01:40:17.202Z,54.21
2018-04-08T01:41:17.192Z,57.17
2018-04-08T01:42:17.187Z,54.02
2018-04-08T01:43:17.180Z,53.53
2018-04-08T01:44:17.174Z,54.68
2018-04-08T01:45:17.172Z,56.02
2018-04-08T01:46:17.158Z,57.46
2018-04-08T01:47:17.154Z,57.93
2018-04-08T01:48:17.148Z,58.67
2018-04-08T01:49:17.140Z,58.10
2018-04-08T01:50:17.134Z,58.58
2018-04-08T01:51:17.127Z,58.48
2018-04-08T01:52:17.124Z,58.86
2018-04-08T01:53:17.114Z,58.58
2018-04-08T01:54:17.108Z,59.44
2018-04-08T01:55:17.102Z,59.44
2018-04-08T01:56:17.101Z,58.86
2018-04-08T01:57:17.090Z,59.15
2018-04-08T01:58:17.088Z,59.44
2018-04-08T01:59:17.079Z,59.05
2018-04-08T02:00:17.071Z,57.81
2018-04-08T02:01:17.065Z,57.04
2018-04-08T02:02:17.062Z,56.85
2018-04-08T02:03:17.054Z,57.90
2018-04-08T02:04:17.045Z,58.86
2018-04-08T02:05:17.035Z,57.71
2018-04-08T02:06:17.032Z,58.48
2018-04-08T02:07:17.026Z,58.76
2018-04-08T02:08:17.022Z,56.95
2018-04-08T02:09:17.011Z,57.90
2018-04-08T02:10:17.007Z,57.33
2018-04-08T02:11:17.012Z,58.86
2018-04-08T02:12:17.017Z,59.15
2018-04-08T02:13:16.985Z,58.86
2018-04-08T02:14:16.980Z,57.81
2018-04-08T02:15:16.976Z,55.90
2018-04-08T02:16:16.965Z,55.52
2018-04-08T02:17:16.963Z,55.61
2018-04-08T02:18:16.952Z,55.04
2018-04-08T02:19:16.945Z,54.94
2018-04-08T02:20:16.944Z,56.18
2018-04-08T02:21:16.937Z,56.85
2018-04-08T02:22:16.927Z,56.18
2018-04-08T02:23:16.921Z,56.09
2018-04-08T02:24:16.921Z,58.00
2018-04-08T02:25:16.906Z,57.43
2018-04-08T02:26:16.900Z,56.38
2018-04-08T02:27:16.896Z,56.38
2018-04-08T02:28:16.884Z,56.28
2018-04-08T02:29:16.883Z,57.04
2018-04-08T02:30:16.879Z,57.71
2018-04-08T02:31:16.869Z,56.38
2018-04-08T02:32:16.863Z,56.85
2018-04-08T02:33:16.855Z,55.23
2018-04-08T02:34:16.847Z,55.52
2018-04-08T02:35:16.843Z,56.18
2018-04-08T02:36:16.836Z,57.31
2018-04-08T02:37:16.825Z,56.45
2018-04-08T02:38:16.822Z,55.49
2018-04-08T02:39:16.817Z,57.97
2018-04-08T02:40:16.805Z,58.07
2018-04-08T02:41:16.802Z,57.02
2018-04-08T02:42:16.795Z,58.64
2018-04-08T02:43:16.791Z,57.31
2018-04-08T02:44:16.781Z,57.31
2018-04-08T02:45:16.775Z,57.68
2018-04-08T02:46:16.776Z,59.69
2018-04-08T02:47:16.762Z,59.31
2018-04-08T02:48:16.754Z,59.98
2018-04-08T02:49:16.749Z,59.41
2018-04-08T02:50:16.736Z,59.50
2018-04-08T02:51:16.735Z,58.45
2018-04-08T02:52:16.728Z,59.31
2018-04-08T02:53:16.724Z,57.78
2018-04-08T02:54:16.714Z,57.78
2018-04-08T02:55:16.708Z,57.02
2018-04-08T02:56:16.707Z,57.11
2018-04-08T02:57:16.698Z,57.87
2018-04-08T02:58:16.697Z,57.78
2018-04-08T02:59:16.681Z,56.35
2018-04-08T03:00:16.675Z,59.50
2018-04-08T03:01:16.676Z,57.97
2018-04-08T03:02:16.655Z,56.63
2018-04-08T03:03:16.655Z,56.35
2018-04-08T03:04:16.657Z,57.31
2018-04-08T03:05:16.639Z,57.50
2018-04-08T03:06:16.640Z,57.40
2018-04-08T03:07:16.629Z,59.41
2018-04-08T03:08:16.621Z,59.41
2018-04-08T03:09:16.614Z,59.31
2018-04-08T03:10:16.609Z,58.70
2018-04-08T03:11:16.599Z,59.12
2018-04-08T03:12:16.594Z,59.19
2018-04-08T03:13:16.583Z,58.93
2018-04-08T03:14:16.580Z,58.26
2018-04-08T03:15:16.573Z,61.60
2018-04-08T03:16:16.568Z,62.24
2018-04-08T03:17:16.559Z,60.42
2018-04-08T03:18:16.552Z,59.47
2018-04-08T03:19:16.551Z,60.42
2018-04-08T03:20:16.542Z,61.29
2018-04-08T03:21:16.528Z,60.90
2018-04-08T03:22:16.519Z,61.38
2018-04-08T03:23:16.519Z,61.86
2018-04-08T03:24:16.513Z,62.24
2018-04-08T03:25:16.506Z,60.42
2018-04-08T03:26:16.498Z,60.33
2018-04-08T03:27:16.496Z,57.94
2018-04-08T03:28:16.484Z,60.81
2018-04-08T03:29:16.477Z,61.38
2018-04-08T03:30:16.468Z,61.29
2018-04-08T03:31:17.971Z,61.38
2018-04-08T03:32:16.459Z,61.19
2018-04-08T03:33:16.448Z,61.76
2018-04-08T03:34:16.444Z,61.38
2018-04-08T03:35:16.436Z,61.76
2018-04-08T03:36:16.431Z,60.52
2018-04-08T03:37:16.423Z,62.62
2018-04-08T03:38:16.415Z,62.34
2018-04-08T03:39:16.408Z,60.90
2018-04-08T03:40:16.403Z,60.52
2018-04-08T03:41:16.395Z,59.19
2018-04-08T03:42:16.387Z,59.28
2018-04-08T03:43:16.381Z,59.28
2018-04-08T03:44:16.370Z,59.38
2018-04-08T03:45:16.368Z,59.56
2018-04-08T03:46:16.360Z,58.14
2018-04-08T03:47:16.353Z,58.61
2018-04-08T03:48:16.346Z,59.28
2018-04-08T03:49:16.338Z,59.38
2018-04-08T03:50:16.331Z,60.42
2018-04-08T03:51:16.326Z,60.90
2018-04-08T03:52:16.320Z,62.05
2018-04-08T03:53:16.306Z,61.47
2018-04-08T03:54:16.307Z,61.10
2018-04-08T03:55:16.295Z,62.43
2018-04-08T03:56:16.293Z,62.91
2018-04-08T03:57:16.280Z,62.52
2018-04-08T03:58:16.281Z,61.76
2018-04-08T03:59:16.266Z,62.15
2018-04-08T04:00:16.263Z,63.10
2018-04-08T04:01:16.259Z,61.76
2018-04-08T04:02:16.252Z,61.57
2018-04-08T04:03:16.246Z,62.91
2018-04-08T04:04:16.235Z,62.81
2018-04-08T04:05:16.230Z,62.34
2018-04-08T04:06:16.218Z,63.26
2018-04-08T04:07:16.219Z,63.54
2018-04-08T04:08:16.208Z,63.35
2018-04-08T04:09:16.200Z,63.07
2018-04-08T04:10:16.195Z,63.54
2018-04-08T04:11:16.187Z,63.45
2018-04-08T04:12:16.182Z,63.16
2018-04-08T04:13:17.986Z,64.12
2018-04-08T04:14:16.165Z,63.35
2018-04-08T04:15:16.160Z,63.45
2018-04-08T04:16:16.153Z,64.12
2018-04-08T04:17:16.145Z,63.83
2018-04-08T04:18:16.138Z,63.83
2018-04-08T04:19:16.130Z,64.50
2018-04-08T04:20:16.123Z,64.40
2018-04-08T04:21:16.118Z,64.21
2018-04-08T04:22:16.113Z,64.21
2018-04-08T04:23:16.111Z,64.78
2018-04-08T04:24:16.098Z,64.75
2018-04-08T04:25:16.095Z,64.75
2018-04-08T04:26:16.083Z,64.94
2018-04-08T04:27:16.076Z,64.88
2018-04-08T04:28:16.069Z,64.85
2018-04-08T04:29:16.064Z,64.56
2018-04-08T04:30:16.055Z,64.31
2018-04-08T04:31:16.050Z,64.56
2018-04-08T04:32:16.049Z,64.28
2018-04-08T04:33:16.033Z,64.37
2018-04-08T04:34:16.025Z,64.69
2018-04-08T04:35:16.019Z,64.12
2018-04-08T04:36:16.014Z,63.42
2018-04-08T04:37:16.008Z,63.60
2018-04-08T04:38:15.998Z,63.51
2018-04-08T04:39:15.992Z,63.45
2018-04-08T04:40:15.985Z,63.83
2018-04-08T04:41:15.981Z,63.54
2018-04-08T04:42:15.968Z,63.92
2018-04-08T04:43:15.961Z,64.69
2018-04-08T04:44:15.961Z,63.83
2018-04-08T04:45:15.948Z,64.02
2018-04-08T04:46:15.945Z,64.31
2018-04-08T04:47:15.937Z,64.02
2018-04-08T04:48:15.923Z,63.07
2018-04-08T04:49:15.922Z,63.64
2018-04-08T04:50:15.915Z,62.88
2018-04-08T04:51:15.936Z,62.88
2018-04-08T04:52:15.901Z,63.64
2018-04-08T04:53:17.492Z,62.40
2018-04-08T04:54:15.886Z,61.92
2018-04-08T04:55:15.878Z,61.83
2018-04-08T04:56:15.873Z,62.21
2018-04-08T04:57:15.869Z,62.78
2018-04-08T04:58:15.859Z,63.07
2018-04-08T04:59:15.852Z,62.97
2018-04-08T05:00:15.843Z,62.97
2018-04-08T05:01:15.836Z,63.54
2018-04-08T05:02:15.830Z,63.35
2018-04-08T05:03:15.824Z,62.02
2018-04-08T05:04:15.820Z,62.78
2018-04-08T05:05:15.810Z,62.78
2018-04-08T05:06:15.803Z,62.88
2018-04-08T05:07:15.795Z,63.45
2018-04-08T05:08:15.793Z,62.88
2018-04-08T05:09:15.783Z,63.64
2018-04-08T05:10:15.774Z,63.26
2018-04-08T05:11:15.769Z,63.35
2018-04-08T05:12:15.761Z,63.64
2018-04-08T05:13:15.753Z,63.16
2018-04-08T05:14:15.746Z,63.45
2018-04-08T05:15:15.744Z,63.35
2018-04-08T05:16:15.730Z,63.45
2018-04-08T05:17:15.726Z,63.16
2018-04-08T05:18:15.717Z,62.88
2018-04-08T05:19:15.713Z,63.54
2018-04-08T05:20:15.706Z,63.54
2018-04-08T05:21:15.700Z,63.07
2018-04-08T05:22:17.506Z,63.45
2018-04-08T05:23:15.686Z,63.45
2018-04-08T05:24:15.679Z,63.16
2018-04-08T05:25:15.666Z,63.39
2018-04-08T05:26:15.664Z,63.35
2018-04-08T05:27:15.659Z,63.26
2018-04-08T05:28:15.652Z,63.10
2018-04-08T05:29:15.644Z,62.68
2018-04-08T05:30:15.639Z,63.54
2018-04-08T05:31:15.631Z,62.88
2018-04-08T05:32:15.625Z,63.35
2018-04-08T05:33:15.617Z,63.39
2018-04-08T05:34:15.612Z,63.39
2018-04-08T05:35:15.613Z,62.91
2018-04-08T05:36:15.600Z,63.29
2018-04-08T05:37:15.594Z,63.29
2018-04-08T05:38:15.583Z,63.57
2018-04-08T05:39:15.583Z,63.29
2018-04-08T05:40:15.573Z,62.34
2018-04-08T05:41:15.565Z,62.43
2018-04-08T05:42:15.560Z,62.05
2018-04-08T05:43:15.554Z,61.86
2018-04-08T05:44:15.549Z,61.38
2018-04-08T05:45:15.544Z,61.29
2018-04-08T05:46:15.534Z,61.29
2018-04-08T05:47:15.528Z,61.29
2018-04-08T05:48:15.524Z,61.57
2018-04-08T05:49:15.512Z,60.61
2018-04-08T05:50:15.519Z,60.33
2018-04-08T05:51:15.503Z,61.03
2018-04-08T05:52:15.495Z,60.55
2018-04-08T05:53:15.490Z,60.46
2018-04-08T05:54:15.484Z,60.46
2018-04-08T05:55:15.477Z,60.36
2018-04-08T05:56:15.472Z,60.17
2018-04-08T05:57:15.465Z,59.88
2018-04-08T05:58:15.461Z,59.50
2018-04-08T05:59:15.452Z,59.69
2018-04-08T06:00:15.446Z,59.31
2018-04-08T06:01:15.450Z,59.88
2018-04-08T06:02:15.437Z,60.07
2018-04-08T06:03:15.429Z,60.07
2018-04-08T06:04:15.423Z,60.27
2018-04-08T06:05:15.417Z,60.27
2018-04-08T06:06:15.418Z,60.36
2018-04-08T06:07:15.408Z,60.27
2018-04-08T06:08:15.409Z,59.69
2018-04-08T06:09:15.393Z,59.31
2018-04-08T06:10:15.387Z,59.31
2018-04-08T06:11:15.383Z,59.69
2018-04-08T06:12:15.375Z,59.41
2018-04-08T06:13:15.374Z,59.59
2018-04-08T06:14:15.364Z,59.22
2018-04-08T06:15:15.360Z,59.22
2018-04-08T06:16:15.348Z,59.59
2018-04-08T06:17:15.345Z,59.22
2018-04-08T06:18:15.341Z,59.41
2018-04-08T06:19:15.335Z,59.59
2018-04-08T06:20:15.327Z,59.31
2018-04-08T06:21:15.322Z,59.41
2018-04-08T06:22:15.316Z,59.31
2018-04-08T06:23:15.309Z,59.31
2018-04-08T06:24:15.306Z,59.59
2018-04-08T06:25:15.298Z,59.59
2018-04-08T06:26:15.292Z,59.31
2018-04-08T06:27:15.450Z,59.22
2018-04-08T06:28:15.281Z,59.31
2018-04-08T06:29:15.275Z,59.22
2018-04-08T06:30:15.290Z,59.02
2018-04-08T06:31:15.268Z,59.22
2018-04-08T06:32:15.258Z,59.41
2018-04-08T06:33:15.249Z,59.31
2018-04-08T06:34:15.246Z,59.50
2018-04-08T06:35:15.244Z,59.41
2018-04-08T06:36:15.235Z,59.31
2018-04-08T06:37:15.232Z,59.22
2018-04-08T06:38:15.221Z,59.41
2018-04-08T06:39:15.218Z,59.41
2018-04-08T06:40:15.212Z,59.50
2018-04-08T06:41:15.201Z,60.07
2018-04-08T06:42:15.200Z,59.63
2018-04-08T06:43:15.195Z,60.10
2018-04-08T06:44:15.187Z,59.72
2018-04-08T06:45:15.184Z,60.49
2018-04-08T06:46:15.177Z,60.17
2018-04-08T06:47:15.174Z,60.49
2018-04-08T06:48:15.166Z,60.30
2018-04-08T06:49:15.159Z,60.30
2018-04-08T06:50:15.157Z,60.58
2018-04-08T06:51:15.149Z,60.77
2018-04-08T06:52:15.145Z,60.49
2018-04-08T06:53:15.140Z,60.30
2018-04-08T06:54:15.136Z,60.10
2018-04-08T06:55:15.130Z,60.49
2018-04-08T06:56:15.121Z,60.77
2018-04-08T06:57:15.156Z,60.49
2018-04-08T06:58:15.108Z,60.58
2018-04-08T06:59:15.106Z,60.55
2018-04-08T07:00:15.100Z,60.55
2018-04-08T07:01:15.092Z,61.25
2018-04-08T07:02:15.090Z,60.39
2018-04-08T07:03:15.079Z,60.58
2018-04-08T07:04:15.077Z,60.30
2018-04-08T07:05:15.096Z,60.77
2018-04-08T07:06:17.040Z,60.58
2018-04-08T07:07:15.059Z,60.68
2018-04-08T07:08:15.053Z,60.10
2018-04-08T07:09:15.047Z,60.58
2018-04-08T07:10:15.045Z,59.72
2018-04-08T07:11:15.042Z,60.10
2018-04-08T07:12:15.031Z,60.10
2018-04-08T07:13:15.029Z,59.24
2018-04-08T07:14:15.027Z,59.72
2018-04-08T07:15:15.018Z,59.37
2018-04-08T07:16:15.013Z,59.24
2018-04-08T07:17:15.010Z,59.05
2018-04-08T07:18:15.003Z,58.61
2018-04-08T07:19:15.003Z,58.89
2018-04-08T07:20:14.990Z,57.93
2018-04-08T07:21:14.986Z,57.93
2018-04-08T07:22:14.981Z,58.12
2018-04-08T07:23:14.973Z,58.03
2018-04-08T07:24:14.972Z,58.80
2018-04-08T07:25:14.966Z,59.18
2018-04-08T07:26:14.962Z,58.32
2018-04-08T07:27:14.956Z,58.70
2018-04-08T07:28:14.952Z,57.93
2018-04-08T07:29:14.945Z,57.93
2018-04-08T07:30:14.955Z,57.84
2018-04-08T07:31:14.938Z,57.75
2018-04-08T07:32:14.932Z,57.87
2018-04-08T07:33:14.940Z,57.01
2018-04-08T07:34:14.924Z,56.53
2018-04-08T07:35:14.921Z,56.82
2018-04-08T07:36:14.914Z,56.24
2018-04-08T07:37:14.912Z,56.34
2018-04-08T07:38:14.905Z,56.34
2018-04-08T07:39:14.899Z,56.24
2018-04-08T07:40:14.896Z,56.91
2018-04-08T07:41:14.887Z,56.62
2018-04-08T07:42:14.887Z,56.34
2018-04-08T07:43:14.883Z,56.37
2018-04-08T07:44:14.914Z,56.08
2018-04-08T07:45:14.875Z,55.69
2018-04-08T07:46:14.870Z,54.57
2018-04-08T07:47:14.863Z,54.19
2018-04-08T07:48:14.862Z,53.71
2018-04-08T07:49:14.861Z,53.81
2018-04-08T07:50:14.858Z,54.22
2018-04-08T07:51:14.851Z,53.45
2018-04-08T07:52:14.850Z,52.78
2018-04-08T07:53:14.846Z,52.59
2018-04-08T07:54:14.841Z,53.45
2018-04-08T07:55:14.842Z,53.07
2018-04-08T07:56:14.838Z,53.16
2018-04-08T07:57:14.835Z,52.87
2018-04-08T07:58:14.839Z,52.81
2018-04-08T07:59:14.831Z,53.00
2018-04-08T08:00:14.825Z,53.58
2018-04-08T08:01:14.820Z,53.48
2018-04-08T08:02:14.821Z,53.09
2018-04-08T08:03:15.186Z,52.91
2018-04-08T08:04:14.818Z,52.04
2018-04-08T08:05:14.812Z,51.75
2018-04-08T08:06:14.810Z,51.68
2018-04-08T08:07:14.809Z,52.14
2018-04-08T08:08:14.810Z,51.75
2018-04-08T08:09:14.812Z,53.22
2018-04-08T08:10:14.805Z,53.22
2018-04-08T08:11:14.848Z,53.31
2018-04-08T08:12:14.798Z,52.16
2018-04-08T08:13:14.792Z,52.07
2018-04-08T08:14:14.802Z,52.74
2018-04-08T08:15:14.794Z,52.16
2018-04-08T08:16:14.792Z,52.16
2018-04-08T08:17:14.787Z,51.71
2018-04-08T08:18:14.804Z,52.76
2018-04-08T08:19:14.788Z,53.05
2018-04-08T08:20:14.784Z,52.69
2018-04-08T08:21:14.782Z,52.05
2018-04-08T08:22:14.785Z,50.80
2018-04-08T08:23:14.786Z,50.13
2018-04-08T08:24:14.781Z,49.77
2018-04-08T08:25:14.781Z,49.57
2018-04-08T08:26:14.779Z,48.35
2018-04-08T08:27:14.779Z,47.10
2018-04-08T08:28:14.777Z,46.14
2018-04-08T08:29:14.779Z,46.26
2018-04-08T08:30:14.793Z,45.39
2018-04-08T08:31:14.784Z,45.29
2018-04-08T08:32:14.783Z,45.68
2018-04-08T08:33:14.786Z,45.01
2018-04-08T08:34:14.789Z,45.29
2018-04-08T08:35:14.796Z,44.93
2018-04-08T08:36:14.794Z,44.55
2018-04-08T08:37:14.791Z,43.51
2018-04-08T08:38:14.811Z,44.57
2018-04-08T08:39:14.793Z,43.78
2018-04-08T08:40:14.796Z,43.88
2018-04-08T08:41:14.798Z,44.74
2018-04-08T08:42:14.798Z,45.42
2018-04-08T08:43:14.800Z,44.93
2018-04-08T08:44:14.800Z,45.80
2018-04-08T08:45:14.802Z,44.57
2018-04-08T08:46:14.808Z,42.26
2018-04-08T08:47:14.810Z,44.76
2018-04-08T08:48:14.812Z,44.59
2018-04-08T08:49:14.831Z,44.59
2018-04-08T08:50:14.817Z,43.63
2018-04-08T08:51:14.827Z,41.63
2018-04-08T08:52:14.824Z,42.30
2018-04-08T08:53:14.830Z,41.53
2018-04-08T08:54:14.834Z,41.44
2018-04-08T08:55:14.841Z,41.84
2018-04-08T08:56:14.847Z,40.88
2018-04-08T08:57:14.845Z,39.74
2018-04-08T08:58:14.851Z,40.51
2018-04-08T08:59:14.859Z,40.32
2018-04-08T09:00:14.859Z,39.37
2018-04-08T09:01:14.864Z,38.70
2018-04-08T09:02:14.871Z,38.51
2018-04-08T09:03:14.871Z,39.26
2018-04-08T09:04:14.881Z,38.79
2018-04-08T09:05:14.888Z,39.28
2018-04-08T09:06:14.893Z,37.93
2018-04-08T09:07:14.898Z,38.21
2018-04-08T09:08:14.903Z,38.79
2018-04-08T09:09:14.908Z,37.35
2018-04-08T09:10:14.917Z,38.79
2018-04-08T09:11:14.919Z,38.79
2018-04-08T09:12:14.925Z,37.08
2018-04-08T09:13:14.930Z,37.17
2018-04-08T09:14:14.938Z,36.69
2018-04-08T09:15:14.942Z,37.17
2018-04-08T09:16:14.949Z,37.37
2018-04-08T09:17:14.952Z,37.38
2018-04-08T09:18:14.960Z,37.77
2018-04-08T09:19:14.966Z,37.96
2018-04-08T09:20:14.973Z,38.74
2018-04-08T09:21:14.978Z,38.06
2018-04-08T09:22:14.987Z,37.40
2018-04-08T09:23:15.015Z,37.12
2018-04-08T09:24:15.011Z,37.02
2018-04-08T09:25:15.005Z,37.29
2018-04-08T09:26:15.012Z,36.90
2018-04-08T09:27:15.068Z,37.58
2018-04-08T09:28:15.055Z,35.74
2018-04-08T09:29:15.026Z,36.71
2018-04-08T09:30:15.033Z,36.71
2018-04-08T09:31:15.035Z,35.16
2018-04-08T09:32:15.046Z,35.74
2018-04-08T09:33:15.047Z,37.19
2018-04-08T09:34:15.058Z,37.19
2018-04-08T09:35:15.062Z,37.96
2018-04-08T09:36:15.167Z,38.54
2018-04-08T09:37:15.072Z,38.06
2018-04-08T09:38:15.078Z,37.10
2018-04-08T09:39:15.083Z,36.80
2018-04-08T09:40:15.087Z,36.13
2018-04-08T09:41:15.095Z,37.48
2018-04-08T09:42:15.099Z,38.74
2018-04-08T09:43:15.108Z,38.66
2018-04-08T09:44:15.112Z,37.79
2018-04-08T09:45:15.118Z,36.74
2018-04-08T09:46:15.129Z,36.26
2018-04-08T09:47:15.124Z,36.74
2018-04-08T09:48:15.137Z,37.44
2018-04-08T09:49:15.138Z,36.66
2018-04-08T09:50:15.145Z,36.38
2018-04-08T09:51:15.147Z,36.58
2018-04-08T09:52:15.157Z,35.41
2018-04-08T09:53:15.163Z,35.81
2018-04-08T09:54:15.189Z,35.91
2018-04-08T09:55:15.177Z,35.62
2018-04-08T09:56:15.181Z,35.04
2018-04-08T09:57:15.187Z,37.09
2018-04-08T09:58:15.194Z,36.22
2018-04-08T09:59:15.214Z,35.36
2018-04-08T10:00:15.208Z,34.88
2018-04-08T10:01:15.219Z,34.12
2018-04-08T10:02:15.223Z,33.92
2018-04-08T10:03:15.232Z,34.61
2018-04-08T10:04:15.237Z,32.87
2018-04-08T10:05:15.244Z,33.65
2018-04-08T10:06:15.269Z,33.94
2018-04-08T10:07:15.262Z,33.26
2018-04-08T10:08:15.272Z,32.02
2018-04-08T10:09:15.282Z,30.76
2018-04-08T10:10:15.313Z,29.30
2018-04-08T10:11:15.297Z,31.35
2018-04-08T10:12:15.306Z,32.62
2018-04-08T10:13:15.314Z,31.16
2018-04-08T10:14:15.322Z,30.88
2018-04-08T10:15:15.342Z,31.27
2018-04-08T10:16:15.344Z,30.30
2018-04-08T10:17:15.353Z,30.59
2018-04-08T10:18:15.367Z,30.11
2018-04-08T10:19:15.375Z,30.40
2018-04-08T10:20:15.382Z,30.29
2018-04-08T10:21:15.392Z,31.16
2018-04-08T10:22:15.402Z,31.55
2018-04-08T10:23:15.408Z,32.13
2018-04-08T10:24:15.418Z,31.63
2018-04-08T10:25:15.430Z,30.87
2018-04-08T10:26:15.439Z,30.18
2018-04-08T10:27:15.448Z,31.15
2018-04-08T10:28:15.455Z,31.15
2018-04-08T10:29:15.519Z,30.66
2018-04-08T10:30:15.521Z,31.35
2018-04-08T10:31:15.484Z,28.93
2018-04-08T10:32:15.496Z,30.19
2018-04-08T10:33:15.501Z,29.71
2018-04-08T10:34:15.509Z,29.90
2018-04-08T10:35:15.516Z,29.60
2018-04-08T10:36:17.171Z,29.88
2018-04-08T10:37:15.532Z,31.24
2018-04-08T10:38:17.513Z,30.38
2018-04-08T10:39:15.545Z,28.93
2018-04-08T10:40:15.553Z,27.28
2018-04-08T10:41:15.561Z,29.71
2018-04-08T10:42:15.568Z,30.00
2018-04-08T10:43:15.578Z,30.58
2018-04-08T10:44:15.583Z,29.71
2018-04-08T10:45:15.590Z,29.88
2018-04-08T10:46:15.597Z,30.68
2018-04-08T10:47:15.605Z,30.66
2018-04-08T10:48:15.615Z,28.91
2018-04-08T10:49:15.618Z,30.66
2018-04-08T10:50:15.625Z,29.87
2018-04-08T10:51:15.635Z,30.94
2018-04-08T10:52:15.640Z,31.91
2018-04-08T10:53:15.646Z,30.05
2018-04-08T10:54:15.651Z,31.31
2018-04-08T10:55:15.659Z,31.31
2018-04-08T10:56:15.666Z,31.99
2018-04-08T10:57:15.670Z,31.60
2018-04-08T10:58:15.701Z,29.95
2018-04-08T10:59:15.683Z,30.05
2018-04-08T11:00:15.684Z,30.26
2018-04-08T11:01:17.198Z,31.52
2018-04-08T11:02:15.705Z,31.04
2018-04-08T11:03:15.712Z,31.15
2018-04-08T11:04:15.715Z,30.27
2018-04-08T11:05:15.719Z,30.76
2018-04-08T11:06:15.723Z,29.79
2018-04-08T11:07:15.730Z,29.21
2018-04-08T11:08:15.738Z,29.50
2018-04-08T11:09:15.739Z,29.30
2018-04-08T11:10:15.753Z,30.18
2018-04-08T11:11:15.753Z,31.34
2018-04-08T11:12:15.754Z,29.98
2018-04-08T11:13:15.760Z,31.53
2018-04-08T11:14:15.768Z,31.15
2018-04-08T11:15:15.772Z,31.24
2018-04-08T11:16:15.779Z,31.53
2018-04-08T11:17:15.782Z,31.24
2018-04-08T11:18:15.790Z,30.38
2018-04-08T11:19:15.795Z,29.04
2018-04-08T11:20:15.801Z,28.45
2018-04-08T11:21:15.818Z,28.94
2018-04-08T11:22:15.815Z,27.39
2018-04-08T11:23:15.822Z,26.22
2018-04-08T11:24:15.830Z,26.90
2018-04-08T11:25:15.836Z,26.51
2018-04-08T11:26:15.844Z,27.39
2018-04-08T11:27:15.853Z,29.91
2018-04-08T11:28:15.861Z,29.83
2018-04-08T11:29:15.872Z,28.88
2018-04-08T11:30:15.878Z,27.51
2018-04-08T11:31:15.890Z,27.03
2018-04-08T11:32:15.896Z,27.61
2018-04-08T11:33:15.902Z,28.02
2018-04-08T11:34:20.414Z,28.02
2018-04-08T11:35:15.922Z,26.95
2018-04-08T11:36:15.929Z,24.90
2018-04-08T11:37:15.938Z,26.07
2018-04-08T11:38:15.949Z,24.82
2018-04-08T11:39:15.960Z,25.12
2018-04-08T11:40:15.970Z,24.94
2018-04-08T11:41:15.981Z,26.79
2018-04-08T11:42:15.987Z,25.81
2018-04-08T11:43:16.025Z,25.81
2018-04-08T11:44:16.007Z,22.11
2018-04-08T11:45:16.028Z,25.52
2018-04-08T11:46:16.022Z,25.71
2018-04-08T11:47:16.090Z,24.74
2018-04-08T11:48:16.045Z,26.01
2018-04-08T11:49:16.057Z,24.76
2018-04-08T11:50:16.068Z,24.37
2018-04-08T11:51:16.080Z,24.48
2018-04-08T11:52:16.093Z,23.30
2018-04-08T11:53:17.730Z,21.06
2018-04-08T11:54:16.108Z,21.34
2018-04-08T11:55:16.124Z,22.11
2018-04-08T11:56:16.126Z,22.11
2018-04-08T11:57:16.140Z,26.01
2018-04-08T11:58:16.152Z,25.60
2018-04-08T11:59:16.161Z,24.55
2018-04-08T12:00:16.173Z,24.45
2018-04-08T12:01:16.273Z,25.13
2018-04-08T12:02:16.189Z,22.99
2018-04-08T12:03:16.199Z,24.45
2018-04-08T12:04:16.209Z,25.81
2018-04-08T12:05:16.217Z,25.90
2018-04-08T12:06:16.251Z,25.71
2018-04-08T12:07:16.238Z,26.79
2018-04-08T12:08:16.247Z,25.23
2018-04-08T12:09:16.287Z,25.42
2018-04-08T12:10:16.260Z,25.23
2018-04-08T12:11:16.274Z,24.27
2018-04-08T12:12:16.286Z,25.34
2018-04-08T12:13:16.292Z,24.18
2018-04-08T12:14:16.302Z,24.08
2018-04-08T12:15:18.251Z,24.87
2018-04-08T12:16:16.321Z,23.01
2018-04-08T12:17:16.329Z,25.64
2018-04-08T12:18:16.338Z,22.92
2018-04-08T12:19:16.354Z,21.06
2018-04-08T12:20:16.359Z,21.84
2018-04-08T12:21:18.251Z,24.87
2018-04-08T12:22:16.380Z,23.00
2018-04-08T12:23:16.391Z,23.68
2018-04-08T12:24:16.405Z,23.19
2018-04-08T12:25:16.413Z,23.11
2018-04-08T12:26:16.423Z,24.08
2018-04-08T12:27:16.432Z,25.74
2018-04-08T12:28:16.445Z,25.65
2018-04-08T12:29:16.454Z,24.68
2018-04-08T12:30:16.463Z,23.22
2018-04-08T12:31:16.502Z,22.05
2018-04-08T12:32:16.488Z,22.24
2018-04-08T12:33:16.494Z,21.64
2018-04-08T12:34:16.509Z,23.00
2018-04-08T12:35:16.518Z,22.90
2018-04-08T12:36:16.530Z,26.31
2018-04-08T12:37:16.541Z,23.11
2018-04-08T12:38:16.548Z,22.73
2018-04-08T12:39:16.565Z,23.01
2018-04-08T12:40:16.568Z,22.72
2018-04-08T12:41:18.266Z,25.74
2018-04-08T12:42:16.598Z,22.23
2018-04-08T12:43:16.607Z,22.62
2018-04-08T12:44:16.619Z,25.25
2018-04-08T12:45:16.626Z,24.39
2018-04-08T12:46:16.638Z,23.62
2018-04-08T12:47:16.648Z,23.12
2018-04-08T12:48:16.663Z,23.32
2018-04-08T12:49:16.668Z,23.82
2018-04-08T12:50:16.679Z,22.92
2018-04-08T12:51:16.689Z,23.02
2018-04-08T12:52:16.703Z,24.10